createdAt,value
2022-10-27T00:00:03.716Z,8.60
2022-10-27T00:01:59.010Z,8.60
2022-10-27T00:03:32.432Z,8.50
2022-10-27T00:05:05.283Z,8.50
2022-10-27T00:06:38.398Z,8.50
2022-10-27T00:08:16.034Z,8.50
2022-10-27T00:09:48.370Z,8.50
2022-10-27T00:11:21.865Z,8.40
2022-10-27T00:12:54.481Z,8.40
2022-10-27T00:14:28.299Z,8.40
2022-10-27T00:16:04.718Z,8.40
2022-10-27T00:17:39.611Z,8.40
2022-10-27T00:19:12.698Z,8.40
2022-10-27T00:20:46.027Z,8.40
2022-10-27T00:22:19.200Z,8.40
2022-10-27T00:23:52.914Z,8.40
2022-10-27T00:25:25.238Z,8.30
2022-10-27T00:26:59.594Z,8.30
2022-10-27T00:28:33.458Z,8.30
2022-10-27T00:30:08.378Z,8.30
2022-10-27T00:31:41.786Z,8.30
2022-10-27T00:33:16.344Z,8.30
2022-10-27T00:34:48.781Z,8.30
2022-10-27T00:36:24.576Z,8.30
2022-10-27T00:37:57.821Z,8.20
2022-10-27T00:39:31.252Z,8.20
2022-10-27T00:41:06.079Z,8.30
2022-10-27T00:42:39.467Z,8.20
2022-10-27T00:44:36.103Z,8.20
2022-10-27T00:46:23.369Z,8.20
2022-10-27T00:47:56.679Z,8.20
2022-10-27T00:49:36.823Z,8.20
2022-10-27T00:51:16.049Z,8.20
2022-10-27T00:52:54.283Z,8.20
2022-10-27T00:54:32.837Z,8.20
2022-10-27T00:56:06.963Z,8.20
2022-10-27T00:57:43.344Z,8.20
2022-10-27T00:59:17.929Z,8.20
2022-10-27T01:00:50.802Z,8.10
2022-10-27T01:02:24.548Z,8.20
2022-10-27T01:03:59.373Z,8.10
2022-10-27T01:05:35.838Z,8.10
2022-10-27T01:07:09.261Z,8.20
2022-10-27T01:08:43.303Z,8.10
2022-10-27T01:10:17.653Z,8.10
2022-10-27T01:11:50.926Z,8.10
2022-10-27T01:13:25.912Z,8.10
2022-10-27T01:14:58.289Z,8.10
2022-10-27T01:16:44.916Z,8.10
2022-10-27T01:18:31.451Z,8.10
2022-10-27T01:21:01.460Z,8.10
2022-10-27T01:22:43.117Z,8.10
2022-10-27T01:24:43.627Z,8.10
2022-10-27T01:26:46.953Z,8.00
2022-10-27T01:29:09.560Z,8.00
2022-10-27T01:31:07.300Z,8.00
2022-10-27T01:32:56.345Z,8.00
2022-10-27T01:34:36.817Z,8.00
2022-10-27T01:36:20.404Z,8.00
2022-10-27T01:38:05.023Z,8.00
2022-10-27T01:39:47.533Z,8.00
2022-10-27T01:41:28.264Z,7.90
2022-10-27T01:43:05.305Z,7.90
2022-10-27T01:44:44.883Z,8.00
2022-10-27T01:46:20.701Z,8.00
2022-10-27T01:47:56.922Z,7.90
2022-10-27T01:49:36.574Z,7.90
2022-10-27T01:51:10.979Z,7.90
2022-10-27T01:52:46.473Z,7.90
2022-10-27T01:54:22.194Z,7.90
2022-10-27T01:56:16.706Z,7.90
2022-10-27T01:58:14.273Z,7.90
2022-10-27T02:00:01.958Z,7.90
2022-10-27T02:02:00.698Z,7.90
2022-10-27T02:03:44.258Z,7.90
2022-10-27T02:05:29.894Z,7.90
2022-10-27T02:07:13.363Z,7.90
2022-10-27T02:08:56.109Z,7.90
2022-10-27T02:10:35.451Z,7.90
2022-10-27T02:12:16.599Z,7.90
2022-10-27T02:13:50.194Z,7.90
2022-10-27T02:15:31.699Z,7.90
2022-10-27T02:17:10.638Z,7.90
2022-10-27T02:18:50.179Z,7.90
2022-10-27T02:20:28.532Z,7.90
2022-10-27T02:22:04.377Z,7.90
2022-10-27T02:23:38.433Z,7.90
2022-10-27T02:25:12.110Z,7.90
2022-10-27T02:26:52.341Z,7.90
2022-10-27T02:28:32.488Z,7.90
2022-10-27T02:30:08.087Z,7.90
2022-10-27T02:31:49.515Z,7.80
2022-10-27T02:33:24.349Z,7.90
2022-10-27T02:34:59.487Z,7.80
2022-10-27T02:36:33.849Z,7.80
2022-10-27T02:38:07.527Z,7.80
2022-10-27T02:39:39.809Z,7.80
2022-10-27T02:41:13.028Z,7.80
2022-10-27T02:42:45.220Z,7.80
2022-10-27T02:44:18.390Z,7.80
2022-10-27T02:45:51.625Z,7.80
2022-10-27T02:47:24.905Z,7.80
2022-10-27T02:48:59.511Z,7.80
2022-10-27T02:50:32.544Z,7.80
2022-10-27T02:52:06.351Z,7.80
2022-10-27T02:53:39.591Z,7.80
2022-10-27T02:55:13.395Z,7.80
2022-10-27T02:56:46.687Z,7.90
2022-10-27T02:58:19.889Z,7.90
2022-10-27T02:59:53.840Z,7.80
2022-10-27T03:01:27.533Z,7.80
2022-10-27T03:03:02.672Z,7.70
2022-10-27T03:04:36.486Z,7.80
2022-10-27T03:06:09.730Z,7.80
2022-10-27T03:07:44.573Z,7.80
2022-10-27T03:09:17.630Z,7.80
2022-10-27T03:10:50.780Z,7.80
2022-10-27T03:12:23.158Z,7.70
2022-10-27T03:13:56.770Z,7.80
2022-10-27T03:15:30.023Z,7.70
2022-10-27T03:17:09.997Z,7.70
2022-10-27T03:18:42.298Z,7.70
2022-10-27T03:20:17.939Z,7.70
2022-10-27T03:21:51.147Z,7.70
2022-10-27T03:23:23.370Z,7.70
2022-10-27T03:24:57.137Z,7.70
2022-10-27T03:26:29.480Z,7.70
2022-10-27T03:28:02.707Z,7.70
2022-10-27T03:29:36.276Z,7.70
2022-10-27T03:31:09.640Z,7.60
2022-10-27T03:32:46.523Z,7.70
2022-10-27T03:34:21.032Z,7.60
2022-10-27T03:35:55.855Z,7.60
2022-10-27T03:37:29.128Z,7.60
2022-10-27T03:39:02.801Z,7.60
2022-10-27T03:40:35.932Z,7.60
2022-10-27T03:42:09.219Z,7.60
2022-10-27T03:43:42.309Z,7.60
2022-10-27T03:45:15.048Z,7.60
2022-10-27T03:46:48.217Z,7.60
2022-10-27T03:48:21.457Z,7.60
2022-10-27T03:49:54.662Z,7.60
2022-10-27T03:51:29.737Z,7.60
2022-10-27T03:53:03.735Z,7.60
2022-10-27T03:54:36.913Z,7.60
2022-10-27T03:56:12.954Z,7.60
2022-10-27T03:57:46.045Z,7.60
2022-10-27T03:59:19.232Z,7.60
2022-10-27T04:00:52.678Z,7.60
2022-10-27T04:02:25.596Z,7.60
2022-10-27T04:03:59.017Z,7.60
2022-10-27T04:05:32.773Z,7.60
2022-10-27T04:07:07.495Z,7.50
2022-10-27T04:08:40.733Z,7.60
2022-10-27T04:10:14.386Z,7.60
2022-10-27T04:11:47.994Z,7.60
2022-10-27T04:13:20.313Z,7.60
2022-10-27T04:14:53.881Z,7.50
2022-10-27T04:16:27.102Z,7.50
2022-10-27T04:18:01.440Z,7.50
2022-10-27T04:19:34.595Z,7.50
2022-10-27T04:21:08.182Z,7.50
2022-10-27T04:22:42.999Z,7.50
2022-10-27T04:24:16.438Z,7.50
2022-10-27T04:25:49.813Z,7.50
2022-10-27T04:27:23.073Z,7.50
2022-10-27T04:28:56.339Z,7.40
2022-10-27T04:30:29.737Z,7.40
2022-10-27T04:32:04.259Z,7.40
2022-10-27T04:33:37.672Z,7.40
2022-10-27T04:35:09.981Z,7.40
2022-10-27T04:36:43.343Z,7.40
2022-10-27T04:38:17.887Z,7.50
2022-10-27T04:39:51.268Z,7.40
2022-10-27T04:41:24.611Z,7.40
2022-10-27T04:42:56.924Z,7.40
2022-10-27T04:44:30.303Z,7.40
2022-10-27T04:46:03.590Z,7.40
2022-10-27T04:47:37.248Z,7.40
2022-10-27T04:49:10.460Z,7.40
2022-10-27T04:50:43.698Z,7.40
2022-10-27T04:52:16.815Z,7.40
2022-10-27T04:53:51.527Z,7.40
2022-10-27T04:55:25.766Z,7.40
2022-10-27T04:56:59.209Z,7.40
2022-10-27T04:58:32.399Z,7.40
2022-10-27T05:00:06.352Z,7.40
2022-10-27T05:01:40.718Z,7.40
2022-10-27T05:03:14.093Z,7.40
2022-10-27T05:04:47.341Z,7.40
2022-10-27T05:06:20.791Z,7.40
2022-10-27T05:07:55.618Z,7.30
2022-10-27T05:09:30.177Z,7.40
2022-10-27T05:11:03.357Z,7.30
2022-10-27T05:12:36.701Z,7.30
2022-10-27T05:14:09.875Z,7.30
2022-10-27T05:15:43.103Z,7.30
2022-10-27T05:17:19.374Z,7.30
2022-10-27T05:18:52.889Z,7.30
2022-10-27T05:20:26.196Z,7.30
2022-10-27T05:21:59.453Z,7.30
2022-10-27T05:23:32.773Z,7.30
2022-10-27T05:25:08.769Z,7.30
2022-10-27T05:26:42.098Z,7.30
2022-10-27T05:28:15.328Z,7.30
2022-10-27T05:29:48.494Z,7.30
2022-10-27T05:31:22.018Z,7.30
2022-10-27T05:32:55.183Z,7.30
2022-10-27T05:34:28.480Z,7.20
2022-10-27T05:36:01.626Z,7.20
2022-10-27T05:37:34.782Z,7.20
2022-10-27T05:39:08.298Z,7.20
2022-10-27T05:40:42.834Z,7.20
2022-10-27T05:42:16.057Z,7.20
2022-10-27T05:43:49.315Z,7.30
2022-10-27T05:45:25.227Z,7.20
2022-10-27T05:46:58.402Z,7.20
2022-10-27T05:48:31.564Z,7.20
2022-10-27T05:50:05.306Z,7.20
2022-10-27T05:51:38.551Z,7.20
2022-10-27T05:53:12.234Z,7.20
2022-10-27T05:54:45.593Z,7.20
2022-10-27T05:56:20.303Z,7.20
2022-10-27T05:57:58.577Z,7.20
2022-10-27T05:59:31.801Z,7.20
2022-10-27T06:01:05.156Z,7.20
2022-10-27T06:02:38.825Z,7.20
2022-10-27T06:04:12.089Z,7.20
2022-10-27T06:05:45.282Z,7.10
2022-10-27T06:07:18.491Z,7.20
2022-10-27T06:08:51.812Z,7.20
2022-10-27T06:10:26.389Z,7.20
2022-10-27T06:12:01.476Z,7.10
2022-10-27T06:13:34.793Z,7.10
2022-10-27T06:15:09.600Z,7.10
2022-10-27T06:16:42.762Z,7.10
2022-10-27T06:18:16.521Z,7.10
2022-10-27T06:19:49.742Z,7.10
2022-10-27T06:21:22.990Z,7.10
2022-10-27T06:22:56.132Z,7.10
2022-10-27T06:24:29.335Z,7.20
2022-10-27T06:26:02.790Z,7.10
2022-10-27T06:27:37.386Z,7.10
2022-10-27T06:29:10.677Z,7.10
2022-10-27T06:30:45.931Z,7.10
2022-10-27T06:32:19.230Z,7.10
2022-10-27T06:33:52.614Z,7.10
2022-10-27T06:35:26.208Z,7.10
2022-10-27T06:37:00.105Z,7.10
2022-10-27T06:38:33.342Z,7.10
2022-10-27T06:40:09.013Z,7.10
2022-10-27T06:41:42.405Z,7.10
2022-10-27T06:43:17.142Z,7.10
2022-10-27T06:44:50.528Z,7.10
2022-10-27T06:46:23.987Z,7.10
2022-10-27T06:47:59.097Z,7.10
2022-10-27T06:49:32.390Z,7.20
2022-10-27T06:51:05.812Z,7.10
2022-10-27T06:52:39.661Z,7.10
2022-10-27T06:54:12.783Z,7.10
2022-10-27T06:55:45.989Z,7.10
2022-10-27T06:57:19.333Z,7.20
2022-10-27T06:58:54.356Z,7.10
2022-10-27T07:00:28.370Z,7.20
2022-10-27T07:02:01.776Z,7.20
2022-10-27T07:03:35.285Z,7.20
2022-10-27T07:05:10.309Z,7.20
2022-10-27T07:06:43.670Z,7.20
2022-10-27T07:08:16.957Z,7.20
2022-10-27T07:09:50.166Z,7.20
2022-10-27T07:11:26.645Z,7.20
2022-10-27T07:13:02.207Z,7.30
2022-10-27T07:14:36.915Z,7.20
2022-10-27T07:16:10.627Z,7.20
2022-10-27T07:17:43.794Z,7.30
2022-10-27T07:19:17.173Z,7.30
2022-10-27T07:20:51.161Z,7.30
2022-10-27T07:22:24.427Z,7.30
2022-10-27T07:23:57.721Z,7.30
2022-10-27T07:25:32.638Z,7.30
2022-10-27T07:27:08.605Z,7.30
2022-10-27T07:28:44.107Z,7.30
2022-10-27T07:30:18.862Z,7.30
2022-10-27T07:31:52.134Z,7.30
2022-10-27T07:33:26.144Z,7.30
2022-10-27T07:34:59.402Z,7.40
2022-10-27T07:36:32.689Z,7.40
2022-10-27T07:38:06.841Z,7.40
2022-10-27T07:39:39.996Z,7.40
2022-10-27T07:41:13.345Z,7.40
2022-10-27T07:42:48.594Z,7.40
2022-10-27T07:44:21.996Z,7.50
2022-10-27T07:45:56.620Z,7.50
2022-10-27T07:47:29.822Z,7.50
2022-10-27T07:49:03.166Z,7.50
2022-10-27T07:50:36.426Z,7.50
2022-10-27T07:52:09.626Z,7.50
2022-10-27T07:53:42.910Z,7.60
2022-10-27T07:55:17.746Z,7.60
2022-10-27T07:56:50.783Z,7.60
2022-10-27T07:58:24.002Z,7.60
2022-10-27T07:59:57.148Z,7.60
2022-10-27T08:01:31.944Z,7.70
2022-10-27T08:03:07.931Z,7.70
2022-10-27T08:04:41.105Z,7.70
2022-10-27T08:06:14.358Z,7.80
2022-10-27T08:07:47.841Z,7.80
2022-10-27T08:09:22.448Z,7.80
2022-10-27T08:10:55.869Z,7.80
2022-10-27T08:12:29.642Z,7.80
2022-10-27T08:14:02.954Z,7.90
2022-10-27T08:15:37.861Z,7.90
2022-10-27T08:17:13.499Z,7.90
2022-10-27T08:18:46.701Z,7.90
2022-10-27T08:20:20.806Z,8.00
2022-10-27T08:21:54.145Z,8.00
2022-10-27T08:23:27.655Z,8.00
2022-10-27T08:25:02.712Z,8.00
2022-10-27T08:26:38.148Z,8.10
2022-10-27T08:28:12.079Z,8.10
2022-10-27T08:29:45.303Z,8.10
2022-10-27T08:31:18.834Z,8.10
2022-10-27T08:33:04.401Z,8.20
2022-10-27T08:34:37.722Z,8.20
2022-10-27T08:36:11.517Z,8.30
2022-10-27T08:37:44.723Z,8.30
2022-10-27T08:39:18.003Z,8.40
2022-10-27T08:41:15.326Z,8.40
2022-10-27T08:43:00.387Z,8.50
2022-10-27T08:44:40.897Z,8.50
2022-10-27T08:46:24.463Z,8.60
2022-10-27T08:48:01.385Z,8.60
2022-10-27T08:49:41.282Z,8.70
2022-10-27T08:51:21.857Z,8.70
2022-10-27T08:53:04.746Z,8.80
2022-10-27T08:54:39.150Z,8.90
2022-10-27T08:56:13.597Z,8.90
2022-10-27T08:57:58.295Z,8.90
2022-10-27T08:59:34.727Z,9.00
2022-10-27T09:01:22.485Z,9.10
2022-10-27T09:03:35.276Z,9.10
2022-10-27T09:05:31.260Z,9.20
2022-10-27T09:07:19.890Z,9.30
2022-10-27T09:09:08.822Z,9.30
2022-10-27T09:10:46.851Z,9.40
2022-10-27T09:12:44.278Z,9.50
2022-10-27T09:14:46.948Z,9.50
2022-10-27T09:16:35.045Z,9.60
2022-10-27T09:18:19.031Z,9.70
2022-10-27T09:20:01.249Z,9.70
2022-10-27T09:21:38.740Z,9.80
2022-10-27T09:23:17.021Z,9.90
2022-10-27T09:25:00.578Z,10.00
2022-10-27T09:26:35.538Z,10.10
2022-10-27T09:28:21.082Z,10.20
2022-10-27T09:30:03.570Z,10.30
2022-10-27T09:31:42.540Z,10.40
2022-10-27T09:33:22.638Z,10.60
2022-10-27T09:35:02.623Z,10.70
2022-10-27T09:36:36.027Z,10.80
2022-10-27T09:38:15.178Z,10.90
2022-10-27T09:39:50.331Z,11.00
2022-10-27T09:41:23.557Z,11.20
2022-10-27T09:42:57.673Z,11.30
2022-10-27T09:44:30.803Z,11.40
2022-10-27T09:46:11.251Z,11.60
2022-10-27T09:47:49.094Z,11.70
2022-10-27T09:49:32.572Z,11.90
2022-10-27T09:51:18.231Z,12.00
2022-10-27T09:52:52.642Z,12.20
2022-10-27T09:54:35.263Z,12.30
2022-10-27T09:56:16.165Z,12.50
2022-10-27T09:57:56.227Z,12.60
2022-10-27T09:59:30.846Z,12.80
2022-10-27T10:01:13.040Z,12.90
2022-10-27T10:04:47.469Z,13.20
2022-10-27T10:06:36.323Z,13.30
2022-10-27T10:08:23.981Z,13.50
2022-10-27T10:10:04.395Z,13.60
2022-10-27T10:11:37.840Z,13.80
2022-10-27T10:13:16.073Z,13.90
2022-10-27T10:14:50.132Z,14.10
2022-10-27T10:16:23.569Z,14.20
2022-10-27T10:18:00.443Z,14.30
2022-10-27T10:19:33.882Z,14.40
2022-10-27T10:21:11.367Z,14.60
2022-10-27T10:22:44.701Z,14.70
2022-10-27T10:24:24.537Z,14.90
2022-10-27T10:26:00.346Z,15.00
2022-10-27T10:27:36.031Z,15.10
2022-10-27T10:29:20.078Z,15.20
2022-10-27T10:30:56.952Z,15.40
2022-10-27T10:32:35.259Z,15.50
2022-10-27T10:34:30.586Z,15.60
2022-10-27T10:36:21.919Z,15.70
2022-10-27T10:38:02.822Z,15.90
2022-10-27T10:39:38.633Z,16.00
2022-10-27T10:41:14.499Z,16.10
2022-10-27T10:43:00.764Z,16.20
2022-10-27T10:44:37.750Z,16.30
2022-10-27T10:46:25.052Z,16.40
2022-10-27T10:48:01.700Z,16.60
2022-10-27T10:49:38.429Z,16.70
2022-10-27T10:51:13.246Z,16.80
2022-10-27T10:52:53.608Z,16.90
2022-10-27T10:54:33.745Z,17.00
2022-10-27T10:56:24.904Z,17.10
2022-10-27T10:58:00.098Z,17.20
2022-10-27T10:59:36.796Z,17.30
2022-10-27T11:01:11.144Z,17.40
2022-10-27T11:02:58.123Z,17.50
2022-10-27T11:04:42.362Z,17.70
2022-10-27T11:06:22.671Z,17.70
2022-10-27T11:07:56.165Z,17.80
2022-10-27T11:09:37.144Z,17.90
2022-10-27T11:11:20.477Z,18.00
2022-10-27T11:13:01.304Z,18.10
2022-10-27T11:14:36.755Z,18.10
2022-10-27T11:16:12.637Z,18.20
2022-10-27T11:17:54.241Z,18.30
2022-10-27T11:19:36.604Z,18.40
2022-10-27T11:21:22.746Z,18.40
2022-10-27T11:22:58.330Z,18.50
2022-10-27T11:24:41.953Z,18.60
2022-10-27T11:26:19.126Z,18.70
2022-10-27T11:28:04.575Z,18.70
2022-10-27T11:29:48.812Z,18.80
2022-10-27T11:31:29.707Z,18.80
2022-10-27T11:33:19.216Z,18.90
2022-10-27T11:35:10.111Z,19.00
2022-10-27T11:36:53.366Z,19.00
2022-10-27T11:38:38.291Z,19.10
2022-10-27T11:40:23.323Z,19.10
2022-10-27T11:42:08.506Z,19.20
2022-10-27T11:43:56.857Z,19.20
2022-10-27T11:45:41.304Z,19.30
2022-10-27T11:47:24.730Z,19.30
2022-10-27T11:49:06.266Z,19.30
2022-10-27T11:50:47.711Z,19.40
2022-10-27T11:52:27.782Z,19.40
2022-10-27T11:54:02.008Z,19.40
2022-10-27T11:55:57.722Z,19.50
2022-10-27T11:57:44.795Z,19.50
2022-10-27T11:59:26.998Z,19.60
2022-10-27T12:01:17.729Z,19.60
2022-10-27T12:05:20.431Z,19.60
2022-10-27T12:07:09.126Z,19.70
2022-10-27T12:09:01.049Z,19.70
2022-10-27T12:10:42.523Z,19.70
2022-10-27T12:12:26.322Z,19.70
2022-10-27T12:14:11.106Z,19.80
2022-10-27T12:15:52.794Z,19.80
2022-10-27T12:17:40.042Z,19.80
2022-10-27T12:19:19.510Z,19.80
2022-10-27T12:21:12.207Z,19.80
2022-10-27T12:22:55.910Z,19.80
2022-10-27T12:24:40.104Z,19.90
2022-10-27T12:26:21.523Z,19.90
2022-10-27T12:27:58.198Z,19.90
2022-10-27T12:29:39.243Z,19.90
2022-10-27T12:31:20.466Z,19.90
2022-10-27T12:33:02.013Z,19.90
2022-10-27T12:34:44.652Z,19.90
2022-10-27T12:36:27.590Z,19.90
2022-10-27T12:38:12.198Z,19.90
2022-10-27T12:39:59.339Z,19.90
2022-10-27T12:41:38.887Z,19.90
2022-10-27T12:43:25.635Z,19.90
2022-10-27T12:45:23.482Z,19.90
2022-10-27T12:47:20.559Z,19.90
2022-10-27T12:49:08.043Z,19.90
2022-10-27T12:50:51.863Z,19.90
2022-10-27T12:52:30.195Z,20.00
2022-10-27T12:54:31.808Z,20.00
2022-10-27T12:56:20.950Z,20.00
2022-10-27T12:58:04.131Z,20.00
2022-10-27T12:59:54.604Z,20.00
2022-10-27T13:01:41.260Z,20.00
2022-10-27T13:03:56.113Z,20.00
2022-10-27T13:06:12.854Z,20.00
2022-10-27T13:08:15.564Z,20.00
2022-10-27T13:10:26.276Z,20.10
2022-10-27T13:12:27.646Z,20.10
2022-10-27T13:14:23.159Z,20.10
2022-10-27T13:16:10.818Z,20.10
2022-10-27T13:17:58.283Z,20.10
2022-10-27T13:21:29.539Z,20.00
2022-10-27T13:23:14.700Z,20.10
2022-10-27T13:25:00.786Z,20.10
2022-10-27T13:26:42.636Z,20.10
2022-10-27T13:28:25.718Z,20.10
2022-10-27T13:30:04.827Z,20.00
2022-10-27T13:31:39.992Z,20.00
2022-10-27T13:33:35.249Z,20.00
2022-10-27T13:35:40.494Z,20.00
2022-10-27T13:37:40.968Z,20.00
2022-10-27T13:39:46.030Z,20.00
2022-10-27T13:41:49.953Z,20.00
2022-10-27T13:43:50.224Z,20.00
2022-10-27T13:45:50.220Z,20.00
2022-10-27T13:47:24.137Z,20.00
2022-10-27T13:48:57.648Z,20.00
2022-10-27T13:50:36.066Z,20.00
2022-10-27T13:52:20.652Z,20.00
2022-10-27T13:53:53.868Z,20.00
2022-10-27T13:55:35.566Z,20.00
2022-10-27T13:58:00.161Z,19.90
2022-10-27T13:59:36.454Z,19.90
2022-10-27T14:01:27.633Z,20.00
2022-10-27T14:03:55.535Z,20.00
2022-10-27T14:05:33.974Z,19.90
2022-10-27T14:07:13.519Z,19.90
2022-10-27T14:08:51.599Z,19.90
2022-10-27T14:10:26.092Z,19.90
2022-10-27T14:12:06.725Z,19.90
2022-10-27T14:13:45.004Z,19.90
2022-10-27T14:15:26.481Z,19.80
2022-10-27T14:17:10.174Z,19.90
2022-10-27T14:18:43.400Z,19.90
2022-10-27T14:20:23.294Z,19.80
2022-10-27T14:21:59.044Z,19.90
2022-10-27T14:23:34.352Z,19.80
2022-10-27T14:25:20.053Z,19.80
2022-10-27T14:26:59.827Z,19.80
2022-10-27T14:28:33.169Z,19.80
2022-10-27T14:30:15.790Z,19.80
2022-10-27T14:31:57.757Z,19.80
2022-10-27T14:33:42.171Z,19.80
2022-10-27T14:35:32.956Z,19.80
2022-10-27T14:37:19.246Z,19.80
2022-10-27T14:38:59.390Z,19.80
2022-10-27T14:40:39.746Z,19.80
2022-10-27T14:42:17.620Z,19.80
2022-10-27T14:43:55.311Z,19.80
2022-10-27T14:45:29.099Z,19.80
2022-10-27T14:47:12.632Z,19.80
2022-10-27T14:48:46.835Z,19.70
2022-10-27T14:50:27.369Z,19.80
2022-10-27T14:52:05.745Z,19.70
2022-10-27T14:53:39.845Z,19.70
2022-10-27T14:55:21.586Z,19.70
2022-10-27T14:56:54.897Z,19.70
2022-10-27T14:58:28.230Z,19.70
2022-10-27T15:00:05.681Z,19.70
2022-10-27T15:01:50.053Z,19.60
2022-10-27T15:03:33.254Z,19.60
2022-10-27T15:05:14.660Z,19.60
2022-10-27T15:06:49.783Z,19.60
2022-10-27T15:08:28.084Z,19.60
2022-10-27T15:10:02.192Z,19.60
2022-10-27T15:11:35.389Z,19.60
2022-10-27T15:13:17.181Z,19.50
2022-10-27T15:14:51.885Z,19.50
2022-10-27T15:16:30.612Z,19.50
2022-10-27T15:18:07.280Z,19.40
2022-10-27T15:19:47.667Z,19.40
2022-10-27T15:21:26.932Z,19.40
2022-10-27T15:23:00.840Z,19.40
2022-10-27T15:24:34.301Z,19.40
2022-10-27T15:26:13.554Z,19.30
2022-10-27T15:27:47.501Z,19.30
2022-10-27T15:29:22.937Z,19.30
2022-10-27T15:30:56.913Z,19.20
2022-10-27T15:32:39.280Z,19.20
2022-10-27T15:34:39.763Z,19.10
2022-10-27T15:36:25.269Z,19.10
2022-10-27T15:37:59.564Z,19.10
2022-10-27T15:39:32.937Z,19.00
2022-10-27T15:41:17.345Z,19.00
2022-10-27T15:42:55.124Z,18.90
2022-10-27T15:44:29.179Z,18.90
2022-10-27T15:46:16.985Z,18.90
2022-10-27T15:47:51.728Z,18.80
2022-10-27T15:49:30.576Z,18.80
2022-10-27T15:51:08.078Z,18.70
2022-10-27T15:52:42.184Z,18.70
2022-10-27T15:54:26.353Z,18.70
2022-10-27T15:56:02.540Z,18.70
2022-10-27T15:57:41.178Z,18.60
2022-10-27T15:59:19.956Z,18.60
2022-10-27T16:01:04.667Z,18.50
2022-10-27T16:02:39.017Z,18.50
2022-10-27T16:04:31.138Z,18.50
2022-10-27T16:06:28.134Z,18.50
2022-10-27T16:08:41.325Z,18.40
2022-10-27T16:10:14.762Z,18.30
2022-10-27T16:11:47.898Z,18.30
2022-10-27T16:13:22.939Z,18.30
2022-10-27T16:14:59.965Z,18.20
2022-10-27T16:16:36.921Z,18.20
2022-10-27T16:18:15.891Z,18.20
2022-10-27T16:19:50.021Z,18.10
2022-10-27T16:21:27.949Z,18.10
2022-10-27T16:23:03.004Z,18.10
2022-10-27T16:24:36.125Z,18.00
2022-10-27T16:26:09.785Z,18.00
2022-10-27T16:27:43.796Z,18.00
2022-10-27T16:29:21.572Z,18.00
2022-10-27T16:30:55.205Z,17.90
2022-10-27T16:32:31.383Z,18.00
2022-10-27T16:34:07.905Z,17.90
2022-10-27T16:35:43.470Z,17.90
2022-10-27T16:37:22.362Z,17.80
2022-10-27T16:38:57.052Z,17.80
2022-10-27T16:40:30.311Z,17.80
2022-10-27T16:42:03.506Z,17.80
2022-10-27T16:43:38.746Z,17.70
2022-10-27T16:45:14.561Z,17.70
2022-10-27T16:46:47.782Z,17.70
2022-10-27T16:48:20.905Z,17.70
2022-10-27T16:49:56.465Z,17.60
2022-10-27T16:51:29.721Z,17.70
2022-10-27T16:53:03.039Z,17.60
2022-10-27T16:54:38.656Z,17.60
2022-10-27T16:56:14.804Z,17.60
2022-10-27T16:57:49.719Z,17.60
2022-10-27T16:59:23.416Z,17.60
2022-10-27T17:00:56.964Z,17.50
2022-10-27T17:02:30.255Z,17.50
2022-10-27T17:04:04.155Z,17.50
2022-10-27T17:05:38.607Z,17.50
2022-10-27T17:07:11.802Z,17.40
2022-10-27T17:08:45.334Z,17.40
2022-10-27T17:10:19.992Z,17.40
2022-10-27T17:11:53.084Z,17.30
2022-10-27T17:13:26.597Z,17.30
2022-10-27T17:14:59.938Z,17.30
2022-10-27T17:16:33.256Z,17.30
2022-10-27T17:18:06.605Z,17.30
2022-10-27T17:19:39.972Z,17.30
2022-10-27T17:21:14.384Z,17.30
2022-10-27T17:22:48.277Z,17.30
2022-10-27T17:24:21.470Z,17.30
2022-10-27T17:26:08.965Z,17.20
2022-10-27T17:27:42.193Z,17.20
2022-10-27T17:29:16.477Z,17.20
2022-10-27T17:30:49.790Z,17.20
2022-10-27T17:32:23.273Z,17.20
2022-10-27T17:33:57.569Z,17.20
2022-10-27T17:35:30.813Z,17.20
2022-10-27T17:37:04.120Z,17.20
2022-10-27T17:38:37.963Z,17.20
2022-10-27T17:40:12.041Z,17.10
2022-10-27T17:41:48.455Z,17.10
2022-10-27T17:43:22.794Z,17.10
2022-10-27T17:44:56.207Z,17.10
2022-10-27T17:46:29.594Z,17.10
2022-10-27T17:48:02.709Z,17.00
2022-10-27T17:49:35.950Z,17.10
2022-10-27T17:51:12.769Z,17.00
2022-10-27T17:52:46.462Z,17.00
2022-10-27T17:54:19.903Z,17.00
2022-10-27T17:55:52.218Z,17.00
2022-10-27T17:57:28.695Z,16.90
2022-10-27T17:59:02.727Z,16.90
2022-10-27T18:00:41.655Z,16.90
2022-10-27T18:03:55.582Z,16.80
2022-10-27T18:05:29.649Z,16.80
2022-10-27T18:07:03.426Z,16.80
2022-10-27T18:08:36.686Z,16.80
2022-10-27T18:10:11.146Z,16.80
2022-10-27T18:11:44.707Z,16.70
2022-10-27T18:13:19.153Z,16.70
2022-10-27T18:14:52.582Z,16.70
2022-10-27T18:16:28.431Z,16.60
2022-10-27T18:18:02.942Z,16.60
2022-10-27T18:19:36.361Z,16.60
2022-10-27T18:21:11.217Z,16.60
2022-10-27T18:22:44.442Z,16.50
2022-10-27T18:24:18.793Z,16.50
2022-10-27T18:25:52.058Z,16.50
2022-10-27T18:27:25.431Z,16.40
2022-10-27T18:29:00.695Z,16.40
2022-10-27T18:30:35.614Z,16.40
2022-10-27T18:32:08.851Z,16.40
2022-10-27T18:33:44.936Z,16.30
2022-10-27T18:35:18.362Z,16.30
2022-10-27T18:36:51.779Z,16.30
2022-10-27T18:38:25.147Z,16.30
2022-10-27T18:39:58.321Z,16.20
2022-10-27T18:41:34.707Z,16.20
2022-10-27T18:43:07.801Z,16.20
2022-10-27T18:44:42.394Z,16.20
2022-10-27T18:46:17.584Z,16.20
2022-10-27T18:47:50.859Z,16.10
2022-10-27T18:49:30.720Z,16.10
2022-10-27T18:51:15.429Z,16.10
2022-10-27T18:52:48.779Z,16.10
2022-10-27T18:54:22.196Z,16.10
2022-10-27T18:55:56.949Z,16.00
2022-10-27T18:57:30.133Z,16.00
2022-10-27T18:59:06.148Z,16.00
2022-10-27T19:00:40.982Z,15.90
2022-10-27T19:02:14.381Z,15.90
2022-10-27T19:03:52.486Z,15.90
2022-10-27T19:05:26.687Z,15.90
2022-10-27T19:06:59.933Z,15.80
2022-10-27T19:08:34.078Z,15.80
2022-10-27T19:10:08.907Z,15.90
2022-10-27T19:11:42.223Z,15.80
2022-10-27T19:13:15.766Z,15.80
2022-10-27T19:14:49.712Z,15.80
2022-10-27T19:16:25.455Z,15.80
2022-10-27T19:18:00.103Z,15.70
2022-10-27T19:19:33.311Z,15.80
2022-10-27T19:22:49.016Z,15.70
2022-10-27T19:24:22.206Z,15.70
2022-10-27T19:26:04.445Z,15.70
2022-10-27T19:27:37.959Z,15.70
2022-10-27T19:29:11.270Z,15.60
2022-10-27T19:30:44.521Z,15.60
2022-10-27T19:32:19.028Z,15.60
2022-10-27T19:33:53.317Z,15.60
2022-10-27T19:35:26.752Z,15.60
2022-10-27T19:37:00.160Z,15.50
2022-10-27T19:38:33.883Z,15.50
2022-10-27T19:40:08.481Z,15.50
2022-10-27T19:41:41.797Z,15.50
2022-10-27T19:43:15.000Z,15.50
2022-10-27T19:44:50.874Z,15.50
2022-10-27T19:46:26.084Z,15.40
2022-10-27T19:48:02.961Z,15.40
2022-10-27T19:49:39.452Z,15.40
2022-10-27T19:51:17.278Z,15.30
2022-10-27T19:52:50.586Z,15.30
2022-10-27T19:54:24.090Z,15.30
2022-10-27T19:56:00.986Z,15.20
2022-10-27T19:57:34.992Z,15.20
2022-10-27T19:59:08.547Z,15.20
2022-10-27T20:00:41.785Z,15.20
2022-10-27T20:02:15.058Z,15.20
2022-10-27T20:03:51.391Z,15.10
2022-10-27T20:05:26.414Z,15.10
2022-10-27T20:07:00.243Z,15.10
2022-10-27T20:08:33.859Z,15.10
2022-10-27T20:10:08.042Z,15.10
2022-10-27T20:11:41.323Z,15.10
2022-10-27T20:13:14.591Z,15.00
2022-10-27T20:14:48.717Z,15.00
2022-10-27T20:16:25.576Z,15.00
2022-10-27T20:17:58.697Z,15.00
2022-10-27T20:19:38.092Z,14.90
2022-10-27T20:21:11.731Z,14.90
2022-10-27T20:22:44.957Z,14.90
2022-10-27T20:24:20.338Z,14.90
2022-10-27T20:26:16.994Z,14.80
2022-10-27T20:27:51.860Z,14.80
2022-10-27T20:29:27.276Z,14.90
2022-10-27T20:31:06.495Z,14.80
2022-10-27T20:32:43.574Z,14.80
2022-10-27T20:34:17.571Z,14.80
2022-10-27T20:35:59.716Z,14.80
2022-10-27T20:37:33.810Z,14.70
2022-10-27T20:39:09.510Z,14.80
2022-10-27T20:40:42.671Z,14.70
2022-10-27T20:42:16.012Z,14.70
2022-10-27T20:43:49.469Z,14.70
2022-10-27T20:45:22.677Z,14.70
2022-10-27T20:46:55.844Z,14.60
2022-10-27T20:48:30.294Z,14.60
2022-10-27T20:50:03.487Z,14.60
2022-10-27T20:51:38.166Z,14.60
2022-10-27T20:53:11.353Z,14.60
2022-10-27T20:54:44.571Z,14.60
2022-10-27T20:56:20.489Z,14.50
2022-10-27T20:57:54.043Z,14.50
2022-10-27T20:59:27.367Z,14.40
2022-10-27T21:01:16.922Z,14.40
2022-10-27T21:02:50.875Z,14.50
2022-10-27T21:04:24.259Z,14.40
2022-10-27T21:05:57.418Z,14.40
2022-10-27T21:07:31.894Z,14.40
2022-10-27T21:09:09.431Z,14.30
2022-10-27T21:10:42.606Z,14.40
2022-10-27T21:12:15.795Z,14.30
2022-10-27T21:13:51.392Z,14.30
2022-10-27T21:15:24.721Z,14.30
2022-10-27T21:16:58.517Z,14.20
2022-10-27T21:18:31.299Z,14.20
2022-10-27T21:20:06.021Z,14.30
2022-10-27T21:21:39.931Z,14.20
2022-10-27T21:23:14.458Z,14.20
2022-10-27T21:24:47.673Z,14.20
2022-10-27T21:26:23.124Z,14.20
2022-10-27T21:27:59.060Z,14.10